TAF PKMJ
PKMJ 280539Z 2806/2906 09012KT P6SM VCSH SCT015 SCT050 BKN150=
METAR PKMJ
WC PKMJ
WS PKMJ
WV PKMJ